Cedar Grove, California
Current Conditions -  °F | °C
As of 6:55 AM on Wednesday 26 Nov 2014 (Local Time) from KPVF Reporting Station
Clear Clear  
Wind Chill: 55°   Ceiling: Unl
Heat Index: 55°   Visibility: 10mi
Dew Point: 32°   Wind: 0mph
Humidity: 41%   Direction: NA
Pressure: 30.35"   Gusts: NA
Location:  38.7573°N, 120.677°W
Report Text: KPVF 261455Z AUTO 00000KT 10SM CLR 13/00 A3035 RMK AO1
Loading
Personal Weather Stations






























Interactive Weather Map New forecast layout! Learn more

10-Day Weather Forecast

Advertisements
Track Severe Weather on mobile